createdAt,value
2019-03-30T00:00:31.357Z,5.57
2019-03-30T00:02:59.151Z,5.80
2019-03-30T00:05:27.115Z,5.73
2019-03-30T00:07:54.965Z,5.40
2019-03-30T00:10:22.765Z,5.40
2019-03-30T00:12:50.627Z,5.60
2019-03-30T00:15:18.565Z,5.43
2019-03-30T00:17:47.205Z,6.07
2019-03-30T00:20:15.117Z,5.80
2019-03-30T00:22:42.909Z,6.07
2019-03-30T00:25:10.665Z,6.10
2019-03-30T00:27:38.511Z,5.73
2019-03-30T00:30:06.521Z,5.93
2019-03-30T00:32:34.373Z,5.97
2019-03-30T00:35:02.295Z,6.03
2019-03-30T00:37:30.071Z,5.73
2019-03-30T00:39:57.829Z,5.77
2019-03-30T00:42:25.673Z,5.77
2019-03-30T00:44:53.553Z,5.40
2019-03-30T00:47:21.434Z,5.70
2019-03-30T00:49:50.199Z,6.13
2019-03-30T00:52:18.185Z,6.23
2019-03-30T00:54:46.023Z,5.93
2019-03-30T00:57:13.887Z,5.80
2019-03-30T00:59:41.753Z,5.90
2019-03-30T01:02:09.656Z,6.23
2019-03-30T01:04:37.401Z,6.00
2019-03-30T01:07:05.186Z,6.30
2019-03-30T01:09:33.042Z,5.23
2019-03-30T01:12:00.959Z,6.03
2019-03-30T01:14:28.844Z,5.57
2019-03-30T01:16:56.741Z,6.63
2019-03-30T01:19:24.657Z,5.67
2019-03-30T01:21:52.569Z,6.33
2019-03-30T01:24:20.433Z,6.60
2019-03-30T01:26:48.302Z,5.97
2019-03-30T01:29:16.189Z,5.93
2019-03-30T01:31:44.070Z,5.77
2019-03-30T01:34:11.909Z,6.20
2019-03-30T01:36:40.045Z,6.20
2019-03-30T01:39:08.895Z,6.40
2019-03-30T01:41:36.754Z,6.17
2019-03-30T01:44:04.676Z,6.17
2019-03-30T01:46:32.450Z,6.60
2019-03-30T01:49:00.285Z,6.57
2019-03-30T01:51:28.188Z,6.40
2019-03-30T01:53:56.029Z,6.30
2019-03-30T01:56:23.906Z,6.43
2019-03-30T01:58:51.781Z,6.07
2019-03-30T02:01:19.659Z,6.70
2019-03-30T02:03:47.565Z,6.43
2019-03-30T02:06:15.421Z,7.27
2019-03-30T02:08:43.174Z,7.23
2019-03-30T02:11:10.923Z,6.40
2019-03-30T02:13:38.798Z,6.43
2019-03-30T02:16:06.690Z,6.47
2019-03-30T02:18:34.519Z,6.40
2019-03-30T02:21:02.359Z,6.43
2019-03-30T02:23:30.254Z,5.73
2019-03-30T02:25:58.002Z,6.10
2019-03-30T02:28:25.777Z,6.90
2019-03-30T02:30:53.648Z,6.83
2019-03-30T02:33:21.419Z,6.57
2019-03-30T02:35:49.278Z,7.40
2019-03-30T02:38:17.255Z,6.57
2019-03-30T02:40:45.127Z,6.50
2019-03-30T02:43:12.925Z,6.80
2019-03-30T02:45:40.778Z,6.47
2019-03-30T02:48:08.644Z,6.47
2019-03-30T02:50:49.096Z,7.40
2019-03-30T02:53:06.198Z,7.17
2019-03-30T02:55:34.077Z,6.97
2019-03-30T02:58:01.934Z,7.03
2019-03-30T03:00:29.809Z,7.43
2019-03-30T03:02:57.806Z,7.37
2019-03-30T03:05:25.691Z,7.10
2019-03-30T03:07:53.446Z,7.13
2019-03-30T03:10:21.350Z,7.60
2019-03-30T03:12:49.102Z,7.00
2019-03-30T03:15:16.987Z,7.20
2019-03-30T03:17:44.760Z,7.13
2019-03-30T03:20:12.645Z,7.10
2019-03-30T03:22:40.609Z,7.37
2019-03-30T03:25:08.526Z,7.10
2019-03-30T03:27:36.396Z,7.23
2019-03-30T03:30:05.054Z,7.40
2019-03-30T03:32:33.003Z,7.80
2019-03-30T03:35:00.960Z,7.67
2019-03-30T03:37:43.126Z,8.13
2019-03-30T03:39:58.545Z,7.53
2019-03-30T03:42:26.602Z,8.57
2019-03-30T03:44:54.402Z,8.03
2019-03-30T03:47:22.174Z,8.37
2019-03-30T03:49:50.047Z,8.27
2019-03-30T03:52:18.408Z,7.97
2019-03-30T03:54:46.292Z,7.77
2019-03-30T03:57:17.789Z,8.73
2019-03-30T03:59:50.174Z,8.20
2019-03-30T04:02:19.052Z,8.50
2019-03-30T04:04:48.947Z,8.80
2019-03-30T04:07:19.219Z,8.20
2019-03-30T04:09:50.303Z,7.37
2019-03-30T04:12:21.700Z,8.25
2019-03-30T04:14:51.477Z,8.40
2019-03-30T04:17:19.578Z,8.20
2019-03-30T04:19:47.434Z,7.57
2019-03-30T04:22:15.188Z,8.23
2019-03-30T04:24:43.045Z,7.70
2019-03-30T04:27:10.915Z,8.70
2019-03-30T04:29:38.900Z,8.03
2019-03-30T04:32:06.666Z,8.37
2019-03-30T04:34:34.419Z,8.23
2019-03-30T04:37:02.309Z,8.05
2019-03-30T04:39:30.171Z,8.10
2019-03-30T04:41:59.710Z,8.50
2019-03-30T04:44:27.464Z,8.00
2019-03-30T04:46:55.321Z,8.48
2019-03-30T04:49:23.099Z,8.85
2019-03-30T04:51:57.409Z,8.53
2019-03-30T04:54:20.645Z,8.55
2019-03-30T04:56:48.567Z,8.45
2019-03-30T04:59:16.553Z,8.60
2019-03-30T05:01:44.313Z,9.00
2019-03-30T05:04:12.101Z,8.57
2019-03-30T05:06:40.001Z,8.35
2019-03-30T05:09:07.931Z,8.40
2019-03-30T05:11:35.796Z,8.83
2019-03-30T05:14:03.693Z,9.78
2019-03-30T05:16:31.551Z,8.68
2019-03-30T05:18:59.321Z,8.90
2019-03-30T05:21:27.193Z,9.13
2019-03-30T05:23:55.093Z,9.00
2019-03-30T05:26:23.015Z,9.45
2019-03-30T05:28:50.895Z,9.43
2019-03-30T05:31:18.780Z,9.63
2019-03-30T05:33:46.741Z,8.90
2019-03-30T05:36:14.609Z,9.43
2019-03-30T05:38:42.577Z,9.33
2019-03-30T05:41:10.485Z,8.90
2019-03-30T05:43:38.497Z,8.57
2019-03-30T05:46:06.393Z,9.10
2019-03-30T05:48:34.361Z,8.63
2019-03-30T05:51:02.369Z,8.83
2019-03-30T05:53:30.345Z,9.07
2019-03-30T05:55:58.243Z,7.97
2019-03-30T05:58:26.033Z,8.53
2019-03-30T06:00:53.892Z,8.43
2019-03-30T06:03:21.773Z,8.43
2019-03-30T06:05:49.669Z,8.40
2019-03-30T06:08:17.573Z,8.73
2019-03-30T06:10:45.453Z,8.37
2019-03-30T06:13:13.255Z,9.50
2019-03-30T06:15:41.137Z,8.20
2019-03-30T06:18:11.359Z,8.90
2019-03-30T06:20:38.794Z,8.50
2019-03-30T06:23:06.681Z,8.20
2019-03-30T06:25:34.600Z,8.67
2019-03-30T06:28:02.349Z,8.67
2019-03-30T06:30:30.199Z,8.77
2019-03-30T06:32:58.088Z,8.33
2019-03-30T06:35:26.092Z,8.57
2019-03-30T06:37:53.861Z,9.03
2019-03-30T06:40:21.749Z,8.03
2019-03-30T06:42:49.585Z,9.27
2019-03-30T06:45:17.468Z,9.37
2019-03-30T06:47:45.220Z,8.90
2019-03-30T06:50:13.928Z,9.43
2019-03-30T06:52:56.385Z,8.80
2019-03-30T06:55:11.592Z,8.73
2019-03-30T06:57:39.352Z,8.63
2019-03-30T07:00:08.143Z,9.00
2019-03-30T07:02:36.384Z,9.50
2019-03-30T07:05:04.894Z,9.27
2019-03-30T07:07:32.925Z,9.87
2019-03-30T07:10:03.395Z,9.20
2019-03-30T07:12:35.020Z,9.00
2019-03-30T07:15:03.413Z,9.77
2019-03-30T07:17:33.793Z,9.40
2019-03-30T07:20:03.467Z,9.47
2019-03-30T07:22:31.372Z,9.50
2019-03-30T07:24:59.258Z,9.47
2019-03-30T07:27:27.116Z,9.43
2019-03-30T07:29:55.056Z,9.30
2019-03-30T07:32:22.884Z,10.07
2019-03-30T07:34:50.729Z,9.40
2019-03-30T07:37:18.616Z,9.27
2019-03-30T07:39:46.460Z,9.30
2019-03-30T07:42:14.334Z,8.70
2019-03-30T07:44:42.573Z,9.73
2019-03-30T07:47:10.461Z,9.50
2019-03-30T07:49:38.323Z,10.83
2019-03-30T07:52:06.101Z,10.13
2019-03-30T07:54:33.978Z,9.97
2019-03-30T07:57:06.263Z,9.57
2019-03-30T07:59:31.431Z,10.07
2019-03-30T08:01:59.192Z,9.67
2019-03-30T08:04:28.622Z,10.40
2019-03-30T08:06:56.728Z,10.70
2019-03-30T08:09:24.643Z,10.40
2019-03-30T08:11:52.483Z,9.77
2019-03-30T08:14:20.302Z,10.03
2019-03-30T08:16:48.194Z,10.27
2019-03-30T08:19:16.046Z,10.33
2019-03-30T08:21:43.913Z,9.90
2019-03-30T08:24:11.752Z,9.33
2019-03-30T08:26:39.672Z,10.13
2019-03-30T08:29:07.544Z,10.43
2019-03-30T08:31:35.425Z,10.33
2019-03-30T08:34:03.195Z,10.40
2019-03-30T08:36:31.048Z,9.90
2019-03-30T08:38:58.808Z,10.27
2019-03-30T08:41:26.690Z,9.63
2019-03-30T08:43:54.458Z,9.77
2019-03-30T08:46:22.400Z,10.73
2019-03-30T08:48:50.296Z,9.90
2019-03-30T08:51:20.784Z,10.17
2019-03-30T08:53:54.396Z,9.63
2019-03-30T08:56:17.648Z,9.53
2019-03-30T08:58:45.495Z,10.33
2019-03-30T09:01:13.361Z,10.53
2019-03-30T09:03:41.126Z,9.33
2019-03-30T09:06:09.098Z,9.97
2019-03-30T09:08:36.862Z,10.20
2019-03-30T09:11:04.753Z,9.57
2019-03-30T09:13:32.724Z,9.90
2019-03-30T09:16:00.511Z,9.87
2019-03-30T09:18:28.456Z,9.83
2019-03-30T09:20:56.376Z,9.60
2019-03-30T09:23:24.263Z,9.57
2019-03-30T09:25:52.048Z,9.93
2019-03-30T09:28:19.831Z,8.97
2019-03-30T09:30:47.578Z,8.57
2019-03-30T09:33:15.365Z,9.23
2019-03-30T09:35:43.206Z,8.00
2019-03-30T09:38:14.533Z,8.13
2019-03-30T09:40:40.739Z,8.13
2019-03-30T09:43:08.633Z,7.60
2019-03-30T09:45:36.495Z,7.40
2019-03-30T09:48:04.265Z,7.43
2019-03-30T09:50:32.117Z,6.83
2019-03-30T09:52:59.972Z,6.90
2019-03-30T09:55:27.822Z,5.77
2019-03-30T09:57:55.654Z,6.23
2019-03-30T10:00:23.417Z,6.57
2019-03-30T10:02:51.158Z,6.80
2019-03-30T10:05:18.908Z,6.50
2019-03-30T10:07:46.665Z,6.50
2019-03-30T10:10:14.457Z,6.23
2019-03-30T10:12:42.290Z,6.37
2019-03-30T10:15:10.385Z,6.47
2019-03-30T10:17:38.237Z,6.70
2019-03-30T10:20:06.314Z,5.77
2019-03-30T10:22:34.069Z,5.97
2019-03-30T10:25:01.937Z,6.37
2019-03-30T10:27:29.766Z,6.07
2019-03-30T10:29:57.627Z,5.43
2019-03-30T10:32:25.365Z,6.67
2019-03-30T10:34:53.132Z,6.47
2019-03-30T10:37:21.021Z,6.57
2019-03-30T10:39:48.805Z,6.97
2019-03-30T10:42:16.727Z,6.57
2019-03-30T10:44:44.449Z,7.10
2019-03-30T10:47:12.243Z,6.43
2019-03-30T10:49:39.982Z,6.37
2019-03-30T10:52:07.858Z,5.77
2019-03-30T10:54:35.581Z,6.57
2019-03-30T10:57:03.444Z,5.70
2019-03-30T10:59:31.302Z,6.83
2019-03-30T11:01:59.058Z,6.30
2019-03-30T11:04:26.853Z,6.37
2019-03-30T11:06:54.759Z,6.43
2019-03-30T11:09:22.694Z,5.77
2019-03-30T11:11:50.557Z,6.50
2019-03-30T11:14:18.313Z,6.67
2019-03-30T11:16:46.102Z,6.27
2019-03-30T11:19:13.848Z,6.67
2019-03-30T11:21:41.612Z,7.13
2019-03-30T11:24:09.394Z,6.57
2019-03-30T11:26:37.127Z,6.67
2019-03-30T11:29:04.997Z,6.30
2019-03-30T11:31:32.741Z,6.00
2019-03-30T11:34:00.607Z,6.90
2019-03-30T11:36:28.342Z,6.97
2019-03-30T11:38:56.105Z,6.83
2019-03-30T11:41:25.039Z,6.43
2019-03-30T11:43:53.009Z,5.97
2019-03-30T11:46:20.761Z,6.70
2019-03-30T11:48:48.516Z,7.47
2019-03-30T11:51:16.444Z,6.37
2019-03-30T11:53:44.307Z,6.40
2019-03-30T11:56:12.185Z,6.50
2019-03-30T11:58:40.247Z,6.80
2019-03-30T12:01:08.125Z,6.37
2019-03-30T12:03:36.047Z,6.47
2019-03-30T12:06:03.949Z,6.33
2019-03-30T12:08:31.857Z,5.90
2019-03-30T12:10:59.604Z,5.77
2019-03-30T12:13:27.466Z,6.13
2019-03-30T12:15:55.241Z,6.03
2019-03-30T12:18:23.241Z,6.23
2019-03-30T12:20:51.017Z,6.57
2019-03-30T12:23:19.054Z,6.20
2019-03-30T12:25:46.801Z,5.80
2019-03-30T12:28:14.603Z,6.00
2019-03-30T12:30:42.571Z,7.20
2019-03-30T12:33:10.465Z,6.37
2019-03-30T12:35:38.371Z,6.73
2019-03-30T12:38:06.263Z,5.90
2019-03-30T12:40:34.023Z,6.50
2019-03-30T12:43:01.823Z,6.07
2019-03-30T12:45:29.713Z,6.00
2019-03-30T12:47:57.669Z,6.00
2019-03-30T12:50:25.454Z,6.00
2019-03-30T12:52:53.317Z,5.97
2019-03-30T12:55:21.163Z,5.87
2019-03-30T12:57:48.889Z,6.77
2019-03-30T13:00:16.763Z,6.23
2019-03-30T13:02:46.413Z,6.23
2019-03-30T13:05:14.318Z,6.33
2019-03-30T13:07:42.099Z,6.97
2019-03-30T13:10:10.156Z,5.67
2019-03-30T13:12:38.001Z,6.00
2019-03-30T13:15:05.870Z,5.60
2019-03-30T13:17:33.627Z,5.57
2019-03-30T13:20:01.491Z,6.33
2019-03-30T13:22:29.374Z,5.87
2019-03-30T13:24:57.121Z,6.60
2019-03-30T13:27:24.878Z,7.43
2019-03-30T13:29:52.633Z,6.50
2019-03-30T13:32:20.411Z,6.03
2019-03-30T13:34:48.252Z,7.10
2019-03-30T13:37:16.715Z,6.23
2019-03-30T13:39:45.001Z,6.70
2019-03-30T13:42:12.857Z,6.93
2019-03-30T13:44:40.718Z,7.30
2019-03-30T13:47:08.445Z,7.07
2019-03-30T13:49:36.354Z,6.07
2019-03-30T13:52:04.232Z,6.40
2019-03-30T13:54:32.492Z,5.80
2019-03-30T13:57:00.251Z,5.90
2019-03-30T13:59:28.132Z,5.83
2019-03-30T14:01:56.002Z,6.33
2019-03-30T14:04:23.807Z,6.50
2019-03-30T14:06:51.690Z,6.80
2019-03-30T14:09:19.473Z,6.70
2019-03-30T14:11:47.197Z,5.77
2019-03-30T14:14:15.032Z,5.63
2019-03-30T14:16:42.773Z,5.13
2019-03-30T14:19:10.665Z,5.40
2019-03-30T14:21:38.500Z,6.20
2019-03-30T14:24:06.328Z,5.87
2019-03-30T14:26:34.180Z,5.90
2019-03-30T14:29:01.947Z,5.80
2019-03-30T14:31:29.674Z,5.33
2019-03-30T14:33:57.440Z,5.63
2019-03-30T14:36:25.192Z,5.47
2019-03-30T14:38:53.064Z,5.67
2019-03-30T14:41:20.933Z,6.30
2019-03-30T14:43:48.666Z,5.77
2019-03-30T14:46:16.528Z,5.20
2019-03-30T14:48:44.264Z,5.00
2019-03-30T14:51:12.018Z,6.27
2019-03-30T14:53:39.887Z,7.20
2019-03-30T14:56:07.733Z,6.67
2019-03-30T14:58:35.497Z,6.50
2019-03-30T15:01:03.513Z,5.67
2019-03-30T15:03:31.460Z,7.00
2019-03-30T15:05:59.348Z,6.03
2019-03-30T15:08:27.076Z,6.70
2019-03-30T15:10:54.833Z,7.10
2019-03-30T15:13:22.597Z,6.77
2019-03-30T15:15:50.354Z,7.43
2019-03-30T15:18:18.133Z,8.23
2019-03-30T15:20:45.983Z,8.17
2019-03-30T15:23:13.837Z,9.50
2019-03-30T15:25:41.714Z,7.97
2019-03-30T15:28:09.577Z,8.43
2019-03-30T15:30:37.397Z,9.33
2019-03-30T15:33:05.151Z,8.13
2019-03-30T15:35:32.905Z,7.97
2019-03-30T15:38:00.815Z,9.13
2019-03-30T15:40:28.670Z,9.00
2019-03-30T15:42:56.425Z,9.63
2019-03-30T15:45:24.151Z,9.87
2019-03-30T15:47:52.010Z,9.50
2019-03-30T15:50:19.872Z,10.07
2019-03-30T15:52:47.745Z,9.33
2019-03-30T15:55:15.469Z,8.47
2019-03-30T15:57:43.216Z,8.67
2019-03-30T16:00:12.190Z,8.47
2019-03-30T16:02:40.047Z,9.40
2019-03-30T16:05:08.117Z,7.90
2019-03-30T16:07:36.227Z,7.57
2019-03-30T16:10:04.771Z,7.87
2019-03-30T16:12:32.565Z,7.53
2019-03-30T16:15:00.397Z,7.40
2019-03-30T16:17:28.370Z,7.93
2019-03-30T16:19:56.225Z,7.77
2019-03-30T16:22:24.094Z,7.90
2019-03-30T16:24:51.811Z,7.73
2019-03-30T16:27:28.778Z,8.27
2019-03-30T16:29:49.403Z,8.87
2019-03-30T16:32:17.279Z,9.67
2019-03-30T16:34:45.061Z,9.30
2019-03-30T16:37:12.817Z,9.37
2019-03-30T16:39:40.648Z,8.83
2019-03-30T16:42:08.388Z,8.73
2019-03-30T16:44:36.146Z,9.30
2019-03-30T16:47:03.999Z,8.93
2019-03-30T16:49:31.740Z,10.73
2019-03-30T16:51:59.489Z,9.43
2019-03-30T16:54:27.228Z,8.63
2019-03-30T16:56:55.048Z,8.70
2019-03-30T16:59:22.932Z,9.40
2019-03-30T17:01:50.712Z,9.10
2019-03-30T17:04:18.634Z,9.77
2019-03-30T17:06:46.377Z,10.43
2019-03-30T17:09:14.227Z,10.80
2019-03-30T17:11:42.010Z,10.90
2019-03-30T17:14:09.764Z,10.83
2019-03-30T17:16:37.505Z,10.80
2019-03-30T17:19:05.256Z,10.77
2019-03-30T17:21:33.103Z,9.57
2019-03-30T17:24:00.879Z,9.93
2019-03-30T17:26:28.589Z,9.93
2019-03-30T17:28:56.351Z,11.03
2019-03-30T17:31:26.676Z,10.13
2019-03-30T17:33:54.502Z,10.17
2019-03-30T17:36:22.422Z,11.83
2019-03-30T17:38:50.161Z,11.43
2019-03-30T17:41:18.027Z,11.13
2019-03-30T17:43:45.851Z,10.63
2019-03-30T17:46:13.600Z,12.03
2019-03-30T17:48:41.450Z,11.17
2019-03-30T17:51:09.322Z,11.47
2019-03-30T17:53:39.502Z,14.43
2019-03-30T17:56:06.835Z,12.47
2019-03-30T17:58:35.040Z,11.30
2019-03-30T18:01:02.980Z,13.73
2019-03-30T18:03:30.842Z,12.97
2019-03-30T18:05:58.582Z,12.40
2019-03-30T18:08:26.457Z,13.37
2019-03-30T18:10:54.189Z,13.23
2019-03-30T18:13:22.027Z,12.27
2019-03-30T18:15:49.901Z,11.80
2019-03-30T18:18:17.785Z,11.10
2019-03-30T18:20:45.656Z,11.83
2019-03-30T18:23:13.409Z,12.43
2019-03-30T18:25:41.293Z,13.50
2019-03-30T18:28:09.136Z,12.30
2019-03-30T18:30:38.736Z,12.97
2019-03-30T18:33:06.689Z,11.97
2019-03-30T18:35:36.364Z,10.50
2019-03-30T18:38:04.207Z,11.43
2019-03-30T18:40:32.720Z,11.30
2019-03-30T18:43:02.033Z,10.83
2019-03-30T18:45:30.181Z,12.03
2019-03-30T18:48:10.451Z,12.70
2019-03-30T18:50:38.951Z,11.27
2019-03-30T18:53:06.814Z,11.93
2019-03-30T18:55:34.665Z,12.93
2019-03-30T18:58:02.549Z,12.90
2019-03-30T19:00:30.391Z,13.67
2019-03-30T19:02:58.275Z,13.50
2019-03-30T19:05:26.153Z,12.83
2019-03-30T19:07:53.925Z,14.80
2019-03-30T19:10:21.715Z,14.37
2019-03-30T19:12:49.477Z,13.90
2019-03-30T19:15:17.314Z,14.70
2019-03-30T19:17:45.226Z,14.23
2019-03-30T19:20:14.171Z,14.43
2019-03-30T19:22:41.936Z,14.77
2019-03-30T19:25:09.677Z,14.13
2019-03-30T19:27:37.458Z,14.60
2019-03-30T19:30:05.570Z,14.73
2019-03-30T19:32:33.453Z,15.13
2019-03-30T19:35:01.349Z,16.00
2019-03-30T19:37:29.249Z,14.93
2019-03-30T19:39:57.101Z,15.23
2019-03-30T19:42:24.991Z,16.03
2019-03-30T19:44:52.840Z,14.37
2019-03-30T19:47:20.583Z,12.73
2019-03-30T19:49:48.421Z,13.93
2019-03-30T19:52:16.179Z,12.00
2019-03-30T19:54:43.914Z,13.07
2019-03-30T19:57:11.690Z,12.50
2019-03-30T19:59:39.431Z,11.63
2019-03-30T20:02:07.309Z,10.80
2019-03-30T20:04:35.190Z,11.90
2019-03-30T20:07:03.155Z,12.73
2019-03-30T20:09:30.978Z,11.57
2019-03-30T20:11:58.838Z,11.60
2019-03-30T20:14:26.568Z,11.23
2019-03-30T20:16:54.456Z,11.10
2019-03-30T20:19:22.285Z,11.47
2019-03-30T20:21:50.200Z,11.10
2019-03-30T20:24:17.930Z,11.60
2019-03-30T20:26:45.686Z,11.73
2019-03-30T20:29:24.714Z,13.40
2019-03-30T20:31:43.194Z,12.80
2019-03-30T20:34:10.925Z,12.83
2019-03-30T20:36:38.880Z,12.67
2019-03-30T20:39:08.368Z,11.77
2019-03-30T20:41:36.436Z,11.83
2019-03-30T20:44:04.387Z,12.20
2019-03-30T20:46:32.298Z,11.33
2019-03-30T20:49:00.279Z,11.37
2019-03-30T20:51:28.510Z,12.00
2019-03-30T20:53:56.426Z,11.03
2019-03-30T20:56:24.354Z,11.63
2019-03-30T20:58:52.256Z,13.20
2019-03-30T21:01:20.206Z,12.47
2019-03-30T21:03:48.032Z,11.53
2019-03-30T21:06:15.942Z,12.27
2019-03-30T21:08:43.836Z,12.50
2019-03-30T21:11:11.708Z,12.27
2019-03-30T21:13:39.606Z,10.87
2019-03-30T21:16:07.625Z,12.43
2019-03-30T21:18:35.536Z,12.53
2019-03-30T21:21:03.463Z,11.63
2019-03-30T21:23:31.346Z,12.53
2019-03-30T21:25:59.262Z,11.80
2019-03-30T21:28:27.142Z,11.57
2019-03-30T21:30:55.084Z,12.43
2019-03-30T21:33:22.957Z,12.70
2019-03-30T21:35:50.902Z,12.20
2019-03-30T21:38:18.798Z,12.80
2019-03-30T21:40:46.610Z,13.00
2019-03-30T21:43:14.504Z,13.47
2019-03-30T21:45:42.431Z,13.07
2019-03-30T21:48:10.340Z,13.10
2019-03-30T21:50:38.278Z,13.17
2019-03-30T21:53:06.162Z,14.03
2019-03-30T21:55:34.058Z,14.23
2019-03-30T21:58:01.957Z,15.63
2019-03-30T22:00:34.554Z,18.70
2019-03-30T22:03:02.474Z,15.07
2019-03-30T22:05:30.446Z,13.60
2019-03-30T22:07:58.446Z,15.00
2019-03-30T22:10:29.346Z,13.53
2019-03-30T22:12:57.271Z,14.50
2019-03-30T22:15:26.780Z,13.73
2019-03-30T22:17:54.581Z,14.00
2019-03-30T22:20:22.471Z,15.03
2019-03-30T22:22:50.387Z,14.67
2019-03-30T22:25:18.334Z,14.87
2019-03-30T22:27:46.734Z,13.73
2019-03-30T22:30:24.711Z,15.07
2019-03-30T22:32:44.437Z,14.07
2019-03-30T22:35:12.450Z,13.77
2019-03-30T22:37:40.430Z,13.53
2019-03-30T22:40:08.645Z,15.77
2019-03-30T22:42:36.526Z,14.10
2019-03-30T22:45:05.253Z,15.53
2019-03-30T22:47:33.293Z,14.83
2019-03-30T22:50:01.280Z,14.33
2019-03-30T22:52:29.193Z,15.50
2019-03-30T22:54:57.100Z,13.83
2019-03-30T22:57:25.012Z,14.50
2019-03-30T22:59:52.932Z,14.17
2019-03-30T23:02:21.048Z,18.07
2019-03-30T23:04:49.148Z,16.17
2019-03-30T23:07:17.105Z,15.17
2019-03-30T23:09:45.055Z,15.33
2019-03-30T23:12:12.961Z,14.83
2019-03-30T23:14:40.846Z,14.13
2019-03-30T23:17:08.738Z,14.97
2019-03-30T23:19:36.756Z,14.97
2019-03-30T23:22:04.740Z,16.50
2019-03-30T23:24:32.646Z,15.07
2019-03-30T23:27:00.874Z,15.47
2019-03-30T23:29:28.788Z,15.90
2019-03-30T23:31:56.682Z,16.63
2019-03-30T23:34:24.568Z,16.67
2019-03-30T23:36:52.452Z,15.60
2019-03-30T23:39:20.370Z,16.50
2019-03-30T23:41:48.330Z,17.93
2019-03-30T23:44:16.274Z,16.57
2019-03-30T23:46:44.109Z,16.27
2019-03-30T23:49:12.098Z,17.27
2019-03-30T23:51:40.012Z,17.77
2019-03-30T23:54:12.814Z,17.47
2019-03-30T23:56:40.722Z,17.00
2019-03-30T23:59:08.617Z,18.17
